createdAt,value
2017-05-02T00:02:27.487Z,7.90
2017-05-02T00:05:02.704Z,7.90
2017-05-02T00:07:38.661Z,7.80
2017-05-02T00:13:18.947Z,7.80
2017-05-02T00:15:54.693Z,7.80
2017-05-02T00:18:29.941Z,7.80
2017-05-02T00:21:05.201Z,7.70
2017-05-02T00:23:40.837Z,7.70
2017-05-02T00:26:16.229Z,7.60
2017-05-02T00:28:51.839Z,7.60
2017-05-02T00:31:27.783Z,7.60
2017-05-02T00:34:03.029Z,7.50
2017-05-02T00:36:38.472Z,7.50
2017-05-02T00:39:13.749Z,7.40
2017-05-02T00:41:49.048Z,7.40
2017-05-02T00:44:24.289Z,7.40
2017-05-02T00:46:59.637Z,7.40
2017-05-02T00:49:35.590Z,7.30
2017-05-02T00:52:10.898Z,7.30
2017-05-02T00:54:46.280Z,7.30
2017-05-02T00:57:21.487Z,7.30
2017-05-02T00:59:56.761Z,7.30
2017-05-02T01:02:31.997Z,7.30
2017-05-02T01:05:07.175Z,7.30
2017-05-02T01:10:48.918Z,7.30
2017-05-02T01:16:28.908Z,7.30
2017-05-02T01:19:04.105Z,7.20
2017-05-02T01:25:01.845Z,7.20
2017-05-02T01:30:41.793Z,7.30
2017-05-02T01:33:16.819Z,7.30
2017-05-02T01:35:52.136Z,7.30
2017-05-02T01:38:27.405Z,7.30
2017-05-02T01:41:02.703Z,7.20
2017-05-02T01:43:37.965Z,7.30
2017-05-02T01:46:13.533Z,7.20
2017-05-02T01:48:48.798Z,7.20
2017-05-02T01:51:23.952Z,7.20
2017-05-02T01:53:59.272Z,7.20
2017-05-02T01:56:34.462Z,7.20
2017-05-02T01:59:09.774Z,7.20
2017-05-02T02:01:45.021Z,7.20
2017-05-02T02:04:20.289Z,7.20
2017-05-02T02:06:55.745Z,7.20
2017-05-02T02:09:30.986Z,7.10
2017-05-02T02:12:06.490Z,7.10
2017-05-02T02:14:41.733Z,7.20
2017-05-02T02:17:17.058Z,7.20
2017-05-02T02:19:52.364Z,7.10
2017-05-02T02:22:27.661Z,7.20
2017-05-02T02:25:03.029Z,7.10
2017-05-02T02:27:39.187Z,7.10
2017-05-02T02:30:14.543Z,7.00
2017-05-02T02:32:50.676Z,7.00
2017-05-02T02:35:26.851Z,7.00
2017-05-02T02:38:02.105Z,7.00
2017-05-02T02:40:37.929Z,7.10
2017-05-02T02:43:13.001Z,7.00
2017-05-02T02:45:48.282Z,7.00
2017-05-02T02:48:24.233Z,6.90
2017-05-02T02:51:00.116Z,6.90
2017-05-02T02:53:35.386Z,6.90
2017-05-02T02:56:11.437Z,6.90
2017-05-02T02:58:46.634Z,6.90
2017-05-02T03:01:22.618Z,6.90
2017-05-02T03:03:57.837Z,6.90
2017-05-02T03:06:33.167Z,6.80
2017-05-02T03:09:08.356Z,6.80
2017-05-02T03:11:43.755Z,6.80
2017-05-02T03:14:19.005Z,6.80
2017-05-02T03:16:54.277Z,6.80
2017-05-02T03:19:29.636Z,6.80
2017-05-02T03:22:04.785Z,6.80
2017-05-02T03:24:40.769Z,6.80
2017-05-02T03:27:16.042Z,6.80
2017-05-02T03:29:51.667Z,6.70
2017-05-02T03:32:27.690Z,6.70
2017-05-02T03:35:02.981Z,6.70
2017-05-02T03:37:38.886Z,6.70
2017-05-02T03:40:14.230Z,6.70
2017-05-02T03:42:49.606Z,6.70
2017-05-02T03:45:24.838Z,6.80
2017-05-02T03:48:00.092Z,6.80
2017-05-02T03:50:35.354Z,6.70
2017-05-02T03:53:10.573Z,6.70
2017-05-02T03:55:46.205Z,6.70
2017-05-02T03:58:21.679Z,6.70
2017-05-02T04:00:57.013Z,6.80
2017-05-02T04:03:32.282Z,6.70
2017-05-02T04:06:07.673Z,6.70
2017-05-02T04:08:43.005Z,6.70
2017-05-02T04:11:18.614Z,6.80
2017-05-02T04:13:53.695Z,6.80
2017-05-02T04:16:29.334Z,6.80
2017-05-02T04:19:04.525Z,6.90
2017-05-02T04:21:39.889Z,6.80
2017-05-02T04:24:15.882Z,6.90
2017-05-02T04:26:51.193Z,6.90
2017-05-02T04:29:27.179Z,6.90
2017-05-02T04:32:02.387Z,6.90
2017-05-02T04:34:38.417Z,7.00
2017-05-02T04:37:13.673Z,7.00
2017-05-02T04:39:48.829Z,7.10
2017-05-02T04:42:24.940Z,7.00
2017-05-02T04:45:00.312Z,7.10
2017-05-02T04:47:35.554Z,7.20
2017-05-02T04:50:10.842Z,7.30
2017-05-02T04:52:46.121Z,7.40
2017-05-02T04:55:21.329Z,7.50
2017-05-02T04:57:56.838Z,7.50
2017-05-02T05:00:32.048Z,7.60
2017-05-02T05:03:07.277Z,7.60
2017-05-02T05:05:42.531Z,7.70
2017-05-02T05:08:17.845Z,7.70
2017-05-02T05:10:53.050Z,7.80
2017-05-02T05:13:28.376Z,7.80
2017-05-02T05:16:03.541Z,7.90
2017-05-02T05:18:38.884Z,8.00
2017-05-02T05:21:14.074Z,8.00
2017-05-02T05:23:49.252Z,8.00
2017-05-02T05:26:24.965Z,8.20
2017-05-02T05:29:01.124Z,8.70
2017-05-02T05:31:37.184Z,8.80
2017-05-02T05:34:12.473Z,8.80
2017-05-02T05:36:47.823Z,8.80
2017-05-02T05:39:23.042Z,8.60
2017-05-02T05:41:58.558Z,8.60
2017-05-02T05:44:33.796Z,8.70
2017-05-02T05:47:09.141Z,9.40
2017-05-02T05:49:45.059Z,9.30
2017-05-02T05:52:20.369Z,9.50
2017-05-02T05:54:56.388Z,9.80
2017-05-02T05:57:31.705Z,10.30
2017-05-02T06:00:06.881Z,10.00
2017-05-02T06:02:42.172Z,9.70
2017-05-02T06:05:17.354Z,9.90
2017-05-02T06:07:52.606Z,9.70
2017-05-02T06:10:27.888Z,9.90
2017-05-02T06:13:03.189Z,10.00
2017-05-02T06:15:38.819Z,9.90
2017-05-02T06:18:14.026Z,10.20
2017-05-02T06:20:49.525Z,10.90
2017-05-02T06:23:24.759Z,11.00
2017-05-02T06:26:00.825Z,11.10
2017-05-02T06:28:36.810Z,11.50
2017-05-02T06:31:12.177Z,11.10
2017-05-02T06:33:47.429Z,11.40
2017-05-02T06:36:23.474Z,11.00
2017-05-02T06:38:58.794Z,11.40
2017-05-02T06:41:34.117Z,11.40
2017-05-02T06:44:10.126Z,11.60
2017-05-02T06:46:45.352Z,11.80
2017-05-02T06:49:20.662Z,11.10
2017-05-02T06:51:55.848Z,10.70
2017-05-02T06:54:31.255Z,10.50
2017-05-02T06:57:06.466Z,10.40
2017-05-02T06:59:41.821Z,10.60
2017-05-02T07:02:16.993Z,11.10
2017-05-02T07:04:53.116Z,11.30
2017-05-02T07:07:28.315Z,10.90
2017-05-02T07:10:03.669Z,11.10
2017-05-02T07:12:39.655Z,11.30
2017-05-02T07:15:15.623Z,11.40
2017-05-02T07:17:51.073Z,11.30
2017-05-02T07:20:26.113Z,11.50
2017-05-02T07:23:01.696Z,11.20
2017-05-02T07:25:37.785Z,10.90
2017-05-02T07:28:13.119Z,10.90
2017-05-02T07:30:49.076Z,10.80
2017-05-02T07:33:24.324Z,11.00
2017-05-02T07:35:59.847Z,10.90
2017-05-02T07:38:35.079Z,11.00
2017-05-02T07:41:10.401Z,11.10
2017-05-02T07:43:45.676Z,11.00
2017-05-02T07:46:20.864Z,11.20
2017-05-02T07:48:55.967Z,11.30
2017-05-02T07:51:31.957Z,11.40
2017-05-02T07:54:07.878Z,11.70
2017-05-02T07:56:43.154Z,11.20
2017-05-02T07:59:18.335Z,11.10
2017-05-02T08:01:53.619Z,11.30
2017-05-02T08:04:29.178Z,11.40
2017-05-02T08:07:04.313Z,11.10
2017-05-02T08:09:39.486Z,11.50
2017-05-02T08:12:14.874Z,11.40
2017-05-02T08:14:50.113Z,11.20
2017-05-02T08:17:25.352Z,11.10
2017-05-02T08:20:00.725Z,11.30
2017-05-02T08:22:36.043Z,11.60
2017-05-02T08:25:11.281Z,11.30
2017-05-02T08:27:47.198Z,11.50
2017-05-02T08:30:22.481Z,11.60
2017-05-02T08:32:57.741Z,11.70
2017-05-02T08:35:33.035Z,11.60
2017-05-02T08:38:08.198Z,11.60
2017-05-02T08:40:43.731Z,11.60
2017-05-02T08:43:18.883Z,11.80
2017-05-02T08:45:54.929Z,12.20
2017-05-02T08:48:30.885Z,12.30
2017-05-02T08:51:06.114Z,12.20
2017-05-02T08:53:41.243Z,12.00
2017-05-02T08:56:16.460Z,12.00
2017-05-02T08:58:51.497Z,13.00
2017-05-02T09:01:26.771Z,12.70
2017-05-02T09:04:01.933Z,12.80
2017-05-02T09:06:37.978Z,13.20
2017-05-02T09:09:13.002Z,13.20
2017-05-02T09:11:48.556Z,12.70
2017-05-02T09:14:24.485Z,12.70
2017-05-02T09:16:59.718Z,12.40
2017-05-02T09:19:35.177Z,12.70
2017-05-02T09:22:10.318Z,13.20
2017-05-02T09:24:45.641Z,12.90
2017-05-02T09:27:20.815Z,13.10
2017-05-02T09:29:56.529Z,13.20
2017-05-02T09:32:31.673Z,12.90
2017-05-02T09:35:07.929Z,12.90
2017-05-02T09:37:43.077Z,12.80
2017-05-02T09:40:18.421Z,13.30
2017-05-02T09:42:53.681Z,13.50
2017-05-02T09:45:29.731Z,13.60
2017-05-02T09:48:04.965Z,13.20
2017-05-02T09:50:40.936Z,13.30
2017-05-02T09:53:16.295Z,13.80
2017-05-02T09:55:51.781Z,14.30
2017-05-02T09:58:27.138Z,13.90
2017-05-02T10:01:02.505Z,14.10
2017-05-02T10:03:38.488Z,14.30
2017-05-02T10:06:13.769Z,14.40
2017-05-02T10:08:48.894Z,14.30
2017-05-02T10:11:24.346Z,13.90
2017-05-02T10:14:00.403Z,14.50
2017-05-02T10:16:35.693Z,14.20
2017-05-02T10:19:11.038Z,14.50
2017-05-02T10:21:47.034Z,14.00
2017-05-02T10:24:22.974Z,13.60
2017-05-02T10:26:58.317Z,13.50
2017-05-02T10:29:33.582Z,14.30
2017-05-02T10:32:09.521Z,14.10
2017-05-02T10:34:44.877Z,13.80
2017-05-02T10:37:20.121Z,13.20
2017-05-02T10:39:55.277Z,13.50
2017-05-02T10:42:30.828Z,13.30
2017-05-02T10:45:06.150Z,12.90
2017-05-02T10:47:41.425Z,13.20
2017-05-02T10:50:16.605Z,13.40
2017-05-02T10:52:52.119Z,13.20
2017-05-02T10:55:27.498Z,13.00
2017-05-02T10:58:02.833Z,13.50
2017-05-02T11:00:38.045Z,13.70
2017-05-02T11:03:13.364Z,13.70
2017-05-02T11:05:49.333Z,13.80
2017-05-02T11:08:24.617Z,14.10
2017-05-02T11:10:59.861Z,13.80
2017-05-02T11:13:35.069Z,13.40
2017-05-02T11:16:10.240Z,13.00
2017-05-02T11:18:45.556Z,13.20
2017-05-02T11:21:20.781Z,13.10
2017-05-02T11:23:56.098Z,13.50
2017-05-02T11:26:31.373Z,13.50
2017-05-02T11:29:06.633Z,13.60
2017-05-02T11:31:41.985Z,13.30
2017-05-02T11:34:17.410Z,13.30
2017-05-02T11:36:52.676Z,12.60
2017-05-02T11:39:27.868Z,12.60
2017-05-02T11:42:03.081Z,12.60
2017-05-02T11:44:38.570Z,12.70
2017-05-02T11:47:13.802Z,12.60
2017-05-02T11:49:50.108Z,12.70
2017-05-02T11:52:25.307Z,12.90
2017-05-02T11:55:01.270Z,12.70
2017-05-02T11:57:36.557Z,12.50
2017-05-02T12:00:11.858Z,12.30
2017-05-02T12:02:47.063Z,12.30
2017-05-02T12:05:22.329Z,12.30
2017-05-02T12:07:58.249Z,12.50
2017-05-02T12:10:33.581Z,12.70
2017-05-02T12:13:08.777Z,12.60
2017-05-02T12:15:44.062Z,12.60
2017-05-02T12:18:19.309Z,12.90
2017-05-02T12:20:54.589Z,12.70
2017-05-02T12:23:30.510Z,12.40
2017-05-02T12:26:05.837Z,12.50
2017-05-02T12:28:40.981Z,12.40
2017-05-02T12:31:16.406Z,12.40
2017-05-02T12:33:52.192Z,12.30
2017-05-02T12:36:27.398Z,12.10
2017-05-02T12:39:02.746Z,12.10
2017-05-02T12:41:38.313Z,11.90
2017-05-02T12:44:13.509Z,11.60
2017-05-02T12:46:48.729Z,11.60
2017-05-02T12:49:23.926Z,11.60
2017-05-02T12:51:59.312Z,11.50
2017-05-02T12:57:10.569Z,11.80
2017-05-02T12:59:45.781Z,11.90
2017-05-02T13:02:21.253Z,12.00
2017-05-02T13:04:56.522Z,12.10
2017-05-02T13:07:32.854Z,12.10
2017-05-02T13:10:10.909Z,12.20
2017-05-02T13:12:46.155Z,12.10
2017-05-02T13:15:21.458Z,12.10
2017-05-02T13:17:57.583Z,12.00
2017-05-02T13:20:33.406Z,11.90
2017-05-02T13:23:09.102Z,12.00
2017-05-02T13:31:54.192Z,12.00
2017-05-02T13:34:29.374Z,11.80
2017-05-02T13:37:04.622Z,11.90
2017-05-02T13:39:40.691Z,12.00
2017-05-02T13:45:16.519Z,11.90
2017-05-02T13:47:52.942Z,11.80
2017-05-02T13:50:29.224Z,11.80
2017-05-02T13:53:05.375Z,11.60
2017-05-02T13:55:53.222Z,11.60
2017-05-02T13:58:28.466Z,11.80
2017-05-02T14:01:03.801Z,11.60
2017-05-02T14:03:39.104Z,11.90
2017-05-02T14:06:14.336Z,11.90
2017-05-02T14:08:50.299Z,11.90
2017-05-02T14:11:27.879Z,12.10
2017-05-02T14:14:02.953Z,11.90
2017-05-02T14:16:38.497Z,11.70
2017-05-02T14:19:14.531Z,11.70
2017-05-02T14:21:49.749Z,11.90
2017-05-02T14:24:24.948Z,11.80
2017-05-02T14:33:09.219Z,11.70
2017-05-02T14:35:45.323Z,11.60
2017-05-02T14:41:26.795Z,11.50
2017-05-02T14:44:01.928Z,11.50
2017-05-02T14:46:37.895Z,11.50
2017-05-02T14:49:13.813Z,11.20
2017-05-02T14:51:49.905Z,11.20
2017-05-02T14:54:25.824Z,11.20
2017-05-02T14:57:04.771Z,11.00
2017-05-02T15:05:56.104Z,10.90
2017-05-02T15:08:32.529Z,11.00
2017-05-02T15:14:12.421Z,10.80
2017-05-02T15:16:47.628Z,10.80
2017-05-02T15:19:23.151Z,10.90
2017-05-02T15:21:59.256Z,10.70
2017-05-02T15:27:48.389Z,10.60
2017-05-02T15:30:23.828Z,10.70
2017-05-02T15:32:59.685Z,10.70
2017-05-02T15:35:34.925Z,10.60
2017-05-02T15:38:10.242Z,10.40
2017-05-02T15:40:45.752Z,10.40
2017-05-02T15:52:35.371Z,10.30
2017-05-02T16:04:25.468Z,10.40
2017-05-02T16:07:00.565Z,10.30
2017-05-02T16:09:35.929Z,10.30
2017-05-02T16:12:10.977Z,10.30
2017-05-02T16:14:46.310Z,10.30
2017-05-02T16:17:21.466Z,10.30
2017-05-02T16:19:56.653Z,10.30
2017-05-02T16:22:31.816Z,10.30
2017-05-02T16:25:07.337Z,10.20
2017-05-02T16:27:42.425Z,10.10
2017-05-02T16:30:17.533Z,10.10
2017-05-02T16:32:52.781Z,10.10
2017-05-02T16:35:28.749Z,10.00
2017-05-02T16:38:04.067Z,10.00
2017-05-02T16:40:40.045Z,10.00
2017-05-02T16:43:16.069Z,9.90
2017-05-02T16:45:51.703Z,9.90
2017-05-02T16:48:26.971Z,9.90
2017-05-02T16:51:02.216Z,9.80
2017-05-02T16:53:37.533Z,9.80
2017-05-02T16:56:12.817Z,9.80
2017-05-02T16:58:48.055Z,9.80
2017-05-02T17:01:23.643Z,9.70
2017-05-02T17:04:16.736Z,9.60
2017-05-02T17:06:51.877Z,9.70
2017-05-02T17:09:27.758Z,9.60
2017-05-02T17:12:02.895Z,9.50
2017-05-02T17:14:38.202Z,9.50
2017-05-02T17:20:19.395Z,9.40
2017-05-02T17:22:54.568Z,9.20
2017-05-02T17:25:29.840Z,9.10
2017-05-02T17:28:06.831Z,8.90
2017-05-02T17:30:41.932Z,8.90
2017-05-02T17:33:17.110Z,8.70
2017-05-02T17:35:53.483Z,8.60
2017-05-02T17:38:28.788Z,8.50
2017-05-02T17:41:03.851Z,8.30
2017-05-02T17:43:39.038Z,8.20
2017-05-02T17:46:14.309Z,8.10
2017-05-02T17:48:51.709Z,8.00
2017-05-02T17:51:27.036Z,8.00
2017-05-02T17:54:04.739Z,7.90
2017-05-02T17:56:44.001Z,7.80
2017-05-02T17:59:19.295Z,7.70
2017-05-02T18:01:54.518Z,7.70
2017-05-02T18:04:30.639Z,7.60
2017-05-02T18:07:05.894Z,7.50
2017-05-02T18:09:41.237Z,7.40
2017-05-02T18:12:16.468Z,7.40
2017-05-02T18:14:51.734Z,7.40
2017-05-02T18:17:27.647Z,7.40
2017-05-02T18:20:03.090Z,7.40
2017-05-02T18:22:38.434Z,7.30
2017-05-02T18:25:13.814Z,7.20
2017-05-02T18:27:49.151Z,7.20
2017-05-02T18:30:24.517Z,7.20
2017-05-02T18:32:59.690Z,7.10
2017-05-02T18:35:34.834Z,7.10
2017-05-02T18:38:10.060Z,7.10
2017-05-02T18:40:45.160Z,7.10
2017-05-02T18:43:20.521Z,7.00
2017-05-02T18:45:56.004Z,7.00
2017-05-02T18:48:31.468Z,7.00
2017-05-02T18:51:06.827Z,7.00
2017-05-02T18:53:42.160Z,6.90
2017-05-02T18:56:17.563Z,7.00
2017-05-02T18:58:52.776Z,6.90
2017-05-02T19:01:28.105Z,6.90
2017-05-02T19:04:05.862Z,6.90
2017-05-02T19:06:42.043Z,6.80
2017-05-02T19:09:18.041Z,6.80
2017-05-02T19:11:53.543Z,6.70
2017-05-02T19:14:31.410Z,6.70
2017-05-02T19:17:07.536Z,6.70
2017-05-02T19:19:42.899Z,6.70
2017-05-02T19:22:18.514Z,6.60
2017-05-02T19:24:55.332Z,6.70
2017-05-02T19:27:30.623Z,6.60
2017-05-02T19:30:11.849Z,6.70
2017-05-02T19:32:47.031Z,6.60
2017-05-02T19:35:22.520Z,6.50
2017-05-02T19:37:59.624Z,6.50
2017-05-02T19:40:34.869Z,6.50
2017-05-02T19:43:11.629Z,6.50
2017-05-02T19:45:46.628Z,6.50
2017-05-02T19:48:23.430Z,6.50
2017-05-02T19:50:58.482Z,6.50
2017-05-02T19:53:34.641Z,6.40
2017-05-02T19:56:09.780Z,6.50
2017-05-02T19:58:44.875Z,6.50
2017-05-02T20:01:20.040Z,6.50
2017-05-02T20:03:55.380Z,6.40
2017-05-02T20:06:30.536Z,6.50
2017-05-02T20:09:06.292Z,6.40
2017-05-02T20:11:42.176Z,6.40
2017-05-02T20:14:18.501Z,6.50
2017-05-02T20:16:53.751Z,6.40
2017-05-02T20:19:28.961Z,6.50
2017-05-02T20:22:04.167Z,6.50
2017-05-02T20:24:39.461Z,6.50
2017-05-02T20:27:14.726Z,6.50
2017-05-02T20:29:49.987Z,6.50
2017-05-02T20:32:25.162Z,6.50
2017-05-02T20:35:00.482Z,6.40
2017-05-02T20:40:13.780Z,6.50
2017-05-02T20:42:50.617Z,6.40
2017-05-02T20:45:26.511Z,6.50
2017-05-02T20:48:02.512Z,6.40
2017-05-02T20:50:37.847Z,6.50
2017-05-02T20:53:13.609Z,6.50
2017-05-02T20:55:48.762Z,6.50
2017-05-02T20:58:23.936Z,6.40
2017-05-02T21:00:59.188Z,6.50
2017-05-02T21:03:34.434Z,6.50
2017-05-02T21:06:09.802Z,6.50
2017-05-02T21:08:45.145Z,6.50
2017-05-02T21:11:20.592Z,6.50
2017-05-02T21:13:56.019Z,6.50
2017-05-02T21:16:32.199Z,6.50
2017-05-02T21:19:07.433Z,6.50
2017-05-02T21:21:42.763Z,6.50
2017-05-02T21:24:18.100Z,6.50
2017-05-02T21:26:53.517Z,6.50
2017-05-02T21:29:28.977Z,6.50
2017-05-02T21:32:04.348Z,6.50
2017-05-02T21:34:40.375Z,6.50
2017-05-02T21:37:15.738Z,6.50
2017-05-02T21:39:51.051Z,6.50
2017-05-02T21:42:26.307Z,6.40
2017-05-02T21:45:01.699Z,6.40
2017-05-02T21:47:37.012Z,6.50
2017-05-02T21:50:15.182Z,6.50
2017-05-02T21:52:50.808Z,6.40
2017-05-02T21:55:25.938Z,6.50
2017-05-02T21:58:01.102Z,6.50
2017-05-02T22:00:36.382Z,6.50
2017-05-02T22:03:11.547Z,6.50
2017-05-02T22:05:46.802Z,6.50
2017-05-02T22:08:22.946Z,6.50
2017-05-02T22:10:58.152Z,6.50
2017-05-02T22:13:33.583Z,6.50
2017-05-02T22:16:09.044Z,6.60
2017-05-02T22:18:44.367Z,6.60
2017-05-02T22:21:19.604Z,6.60
2017-05-02T22:23:54.963Z,6.60
2017-05-02T22:26:30.059Z,6.60
2017-05-02T22:29:05.465Z,6.60
2017-05-02T22:31:41.376Z,6.60
2017-05-02T22:34:16.782Z,6.70
2017-05-02T22:36:52.783Z,6.70
2017-05-02T22:39:28.066Z,6.70
2017-05-02T22:42:03.327Z,6.70
2017-05-02T22:44:38.479Z,6.80
2017-05-02T22:47:13.755Z,6.80
2017-05-02T22:49:49.277Z,6.90
2017-05-02T22:52:24.603Z,6.80
2017-05-02T22:54:59.951Z,6.90
2017-05-02T22:57:35.176Z,6.80
2017-05-02T23:00:10.521Z,6.90
2017-05-02T23:02:45.795Z,6.90
2017-05-02T23:05:21.409Z,6.90
2017-05-02T23:07:56.615Z,6.90
2017-05-02T23:10:32.049Z,6.90
2017-05-02T23:13:07.299Z,6.90
2017-05-02T23:15:42.804Z,7.00
2017-05-02T23:18:17.868Z,7.00
2017-05-02T23:20:53.156Z,7.00
2017-05-02T23:23:28.250Z,7.00
2017-05-02T23:26:03.744Z,7.00
2017-05-02T23:28:38.901Z,7.10
2017-05-02T23:31:15.090Z,7.10
2017-05-02T23:33:50.470Z,7.10
2017-05-02T23:36:25.814Z,7.10
2017-05-02T23:39:01.017Z,7.10
2017-05-02T23:41:36.391Z,7.10
2017-05-02T23:44:11.735Z,7.10
2017-05-02T23:46:47.271Z,7.10
2017-05-02T23:49:22.544Z,7.10
2017-05-02T23:51:57.858Z,7.10
2017-05-02T23:54:33.204Z,7.10
2017-05-02T23:57:08.650Z,7.10
2017-05-02T23:59:43.852Z,7.20
